Time;durP1;ratioP1;P1;durP2;ratioP2;P2;SDS_P1;SDS_P2;PMS_P1;PMS_P2;Temp;Humidity;BMP_temperature;BMP_pressure;BME280_temperature;BME280_humidity;BME280_pressure;Samples;Min_cycle;Max_cycle;Signal;HPM_P1;HPM_P2
2023/02/17 00:01:59;;;;;;;11.40;4.90;;;7.90;99.90;;;;;;5021588;28;20046;-85
2023/02/17 00:04:46;;;;;;;8.93;4.50;;;7.90;99.90;;;;;;5026466;28;20683;-85
2023/02/17 00:07:36;;;;;;;7.55;5.07;;;7.90;99.90;;;;;;5020020;28;20190;-85
2023/02/17 00:10:23;;;;;;;7.55;4.32;;;7.90;99.90;;;;;;5010925;28;20130;-85
2023/02/17 00:13:10;;;;;;;9.90;3.97;;;8.00;99.90;;;;;;5016809;28;20495;-85
2023/02/17 00:16:04;;;;;;;11.73;4.95;;;8.00;99.90;;;;;;5009558;28;20058;-85
2023/02/17 00:19:00;;;;;;;9.50;4.82;;;8.00;99.90;;;;;;5013213;28;20331;-84
2023/02/17 00:21:49;;;;;;;12.65;4.65;;;8.00;99.90;;;;;;5012336;28;20053;-84
2023/02/17 00:24:39;;;;;;;10.57;4.95;;;8.00;99.90;;;;;;5029953;28;20115;-85
2023/02/17 00:27:27;;;;;;;9.65;4.40;;;8.10;99.90;;;;;;5017132;28;20045;-85
2023/02/17 00:30:14;;;;;;;9.48;4.63;;;8.10;99.90;;;;;;5001807;28;20444;-84
2023/02/17 00:33:02;;;;;;;9.00;3.90;;;8.10;99.90;;;;;;5000398;28;20046;-85
2023/02/17 00:35:51;;;;;;;11.23;4.43;;;8.10;99.90;;;;;;5012049;28;20057;-85
2023/02/17 00:38:41;;;;;;;8.68;4.40;;;8.10;99.90;;;;;;5018582;28;20486;-85
2023/02/17 00:41:30;;;;;;;13.57;4.75;;;8.10;99.90;;;;;;5006647;28;20073;-83
2023/02/17 00:44:24;;;;;;;10.43;4.72;;;8.10;99.90;;;;;;5003131;28;20175;-84
2023/02/17 00:47:14;;;;;;;8.73;4.25;;;8.20;99.90;;;;;;5016551;28;20108;-85
2023/02/17 00:50:01;;;;;;;13.32;4.53;;;8.20;99.90;;;;;;5017907;28;20060;-86
2023/02/17 00:52:52;;;;;;;8.30;4.65;;;8.20;99.90;;;;;;5023613;28;20567;-84
2023/02/17 00:55:40;;;;;;;8.13;4.20;;;8.10;99.90;;;;;;5026424;28;20046;-84
2023/02/17 00:58:27;;;;;;;8.80;4.80;;;8.10;99.90;;;;;;5016417;28;20085;-85
2023/02/17 01:01:14;;;;;;;8.00;4.03;;;8.10;99.90;;;;;;5022240;28;20050;-85
2023/02/17 01:04:04;;;;;;;11.32;4.28;;;8.10;99.90;;;;;;5014660;28;20056;-85
2023/02/17 01:06:53;;;;;;;11.65;4.45;;;8.10;99.90;;;;;;5017678;28;20275;-86
2023/02/17 01:09:40;;;;;;;9.68;4.50;;;8.00;99.90;;;;;;5017610;28;20646;-84
2023/02/17 01:12:27;;;;;;;9.75;4.47;;;8.00;99.90;;;;;;5016617;28;20045;-84
2023/02/17 01:15:20;;;;;;;8.07;4.50;;;8.00;99.90;;;;;;5018663;28;20454;-86
2023/02/17 01:18:07;;;;;;;;;;;8.10;99.90;;;;;;5013763;28;20041;-86
2023/02/17 01:20:59;;;;;;;7.78;4.72;;;8.00;99.90;;;;;;5009854;28;19922;-85
2023/02/17 01:23:51;;;;;;;8.23;4.43;;;7.90;99.90;;;;;;5003109;28;20456;-85
2023/02/17 01:26:39;;;;;;;11.20;4.10;;;7.90;99.90;;;;;;5017581;28;20060;-84
2023/02/17 01:29:26;;;;;;;16.90;4.95;;;7.80;99.90;;;;;;5014013;28;20061;-87
2023/02/17 01:32:13;;;;;;;9.15;4.00;;;7.80;99.90;;;;;;5018548;28;20054;-87
2023/02/17 01:35:00;;;;;;;13.18;5.28;;;7.70;99.90;;;;;;4997670;28;20383;-86
2023/02/17 01:37:50;;;;;;;14.38;5.00;;;7.70;99.90;;;;;;5022530;28;20061;-86
2023/02/17 01:40:45;;;;;;;7.35;4.55;;;7.70;99.90;;;;;;5020029;28;20086;-85
2023/02/17 01:43:33;;;;;;;10.23;4.57;;;7.70;99.90;;;;;;5015273;28;20181;-87
2023/02/17 01:46:20;;;;;;;8.88;3.97;;;7.70;99.90;;;;;;5006231;28;20057;-86
2023/02/17 01:49:32;;;;;;;6.57;3.60;;;7.70;99.90;;;;;;5015003;28;20055;-87
2023/02/17 01:52:24;;;;;;;8.93;4.18;;;7.70;99.90;;;;;;5018603;28;20072;-85
2023/02/17 01:55:18;;;;;;;9.25;4.20;;;7.80;99.90;;;;;;5018117;28;20053;-87
2023/02/17 01:58:07;;;;;;;10.70;4.80;;;7.80;99.90;;;;;;5010198;28;20056;-86
2023/02/17 02:01:01;;;;;;;11.05;4.25;;;7.70;99.90;;;;;;5003287;28;20060;-86
2023/02/17 02:03:50;;;;;;;9.20;3.92;;;7.70;99.90;;;;;;5013959;28;20104;-85
2023/02/17 02:06:43;;;;;;;11.27;5.03;;;7.70;99.90;;;;;;5012137;28;20089;-84
2023/02/17 02:09:46;;;;;;;11.10;4.82;;;7.60;99.90;;;;;;5016466;28;20217;-85
2023/02/17 02:12:36;;;;;;;12.80;4.35;;;7.60;99.90;;;;;;5010049;28;20057;-85
2023/02/17 02:15:50;;;;;;;8.10;4.72;;;7.70;99.90;;;;;;5009340;28;20471;-85
2023/02/17 02:19:14;;;;;;;12.40;4.53;;;7.80;99.90;;;;;;5014024;28;20106;-86
2023/02/17 02:22:29;;;;;;;12.95;4.90;;;7.80;99.90;;;;;;5015429;28;20054;-84
2023/02/17 02:25:28;;;;;;;15.43;4.70;;;7.80;99.90;;;;;;5018771;28;20053;-83
2023/02/17 02:28:21;;;;;;;13.73;4.03;;;7.80;99.90;;;;;;5003841;28;20135;-85
2023/02/17 02:31:20;;;;;;;9.48;4.70;;;7.80;99.90;;;;;;5016146;28;20100;-86
2023/02/17 02:34:23;;;;;;;8.98;4.32;;;7.70;99.90;;;;;;5011136;28;20084;-86
2023/02/17 02:37:24;;;;;;;6.60;3.80;;;7.70;99.90;;;;;;5018954;28;20050;-84
2023/02/17 02:40:18;;;;;;;13.75;4.20;;;7.60;99.90;;;;;;5011156;28;20054;-84
2023/02/17 02:43:06;;;;;;;14.57;4.68;;;7.60;99.90;;;;;;5011553;28;20109;-85
2023/02/17 02:45:53;;;;;;;11.65;4.53;;;7.60;99.90;;;;;;4990457;28;20053;-86
2023/02/17 02:48:42;;;;;;;14.88;4.53;;;7.50;99.90;;;;;;5015530;28;20463;-84
2023/02/17 02:51:53;;;;;;;14.63;4.53;;;7.50;99.90;;;;;;4985966;28;20427;-85
2023/02/17 02:55:02;;;;;;;12.45;3.78;;;7.60;99.90;;;;;;5003392;28;20042;-85
2023/02/17 02:58:11;;;;;;;7.75;4.38;;;7.50;99.90;;;;;;5013083;28;20042;-85
2023/02/17 03:01:06;;;;;;;8.80;4.15;;;7.50;99.90;;;;;;5014367;28;20041;-86
2023/02/17 03:04:05;;;;;;;7.53;3.60;;;7.50;99.90;;;;;;5001120;28;20160;-85
2023/02/17 03:07:00;;;;;;;8.10;4.38;;;7.40;99.90;;;;;;5012855;28;20104;-85
2023/02/17 03:09:56;;;;;;;11.85;4.72;;;7.40;99.90;;;;;;5017645;28;20385;-84
2023/02/17 03:12:43;;;;;;;10.40;4.40;;;7.40;99.90;;;;;;5019518;28;20466;-85
2023/02/17 03:15:33;;;;;;;9.20;4.50;;;7.50;99.90;;;;;;5019683;28;20049;-84
2023/02/17 03:18:20;;;;;;;9.43;4.60;;;7.40;99.90;;;;;;5012166;28;20058;-85
2023/02/17 03:21:18;;;;;;;10.27;4.20;;;7.50;99.90;;;;;;5009684;28;20046;-85
2023/02/17 03:24:05;;;;;;;9.45;4.25;;;7.50;99.90;;;;;;5018185;28;20050;-85
2023/02/17 03:26:55;;;;;;;9.70;3.92;;;7.50;99.90;;;;;;5013518;28;20054;-85
2023/02/17 03:29:42;;;;;;;9.57;4.43;;;7.60;99.90;;;;;;5012519;28;20042;-85
2023/02/17 03:32:31;;;;;;;6.97;4.20;;;7.60;99.90;;;;;;5006326;28;20164;-83
2023/02/17 03:35:22;;;;;;;11.77;4.63;;;7.60;99.90;;;;;;5014972;28;20463;-85
2023/02/17 03:38:09;;;;;;;7.40;4.80;;;7.60;99.90;;;;;;5022370;28;20050;-86
2023/02/17 03:40:56;;;;;;;14.32;4.22;;;7.60;99.90;;;;;;5018490;28;20058;-86
2023/02/17 03:43:43;;;;;;;7.13;4.00;;;7.60;99.90;;;;;;5019147;28;20056;-89
2023/02/17 03:46:30;;;;;;;10.93;4.63;;;7.60;99.90;;;;;;5006089;28;20046;-86
2023/02/17 03:49:18;;;;;;;9.88;4.75;;;7.60;99.90;;;;;;5008237;28;20052;-87
2023/02/17 03:52:05;;;;;;;8.93;4.88;;;7.60;99.90;;;;;;5017842;28;20085;-86
2023/02/17 03:54:52;;;;;;;16.60;4.35;;;7.60;99.90;;;;;;5012853;28;20136;-85
2023/02/17 03:57:43;;;;;;;12.32;5.00;;;7.60;99.90;;;;;;5006125;28;20050;-87
2023/02/17 04:00:30;;;;;;;8.30;4.43;;;7.60;99.90;;;;;;5005770;28;20065;-86
2023/02/17 04:03:24;;;;;;;7.28;4.90;;;7.70;99.90;;;;;;5017228;28;20418;-86
2023/02/17 04:06:18;;;;;;;12.27;4.63;;;7.70;99.90;;;;;;5016222;28;20163;-85
2023/02/17 04:09:05;;;;;;;10.80;4.50;;;7.70;99.90;;;;;;5012943;28;20052;-86
2023/02/17 04:11:54;;;;;;;12.63;4.95;;;7.70;99.90;;;;;;5001055;28;20056;-88
2023/02/17 04:14:43;;;;;;;10.85;4.75;;;7.80;99.90;;;;;;5015228;28;20077;-85
2023/02/17 04:17:31;;;;;;;9.70;4.35;;;7.80;99.90;;;;;;5017846;28;20118;-87
2023/02/17 04:20:18;;;;;;;9.02;4.93;;;7.90;99.90;;;;;;5012071;28;20050;-85
2023/02/17 04:23:07;;;;;;;11.23;4.38;;;7.90;99.90;;;;;;5004647;28;20129;-86
2023/02/17 04:25:54;;;;;;;15.85;4.35;;;7.90;99.90;;;;;;5013516;28;20041;-87
2023/02/17 04:28:42;;;;;;;12.40;4.68;;;7.90;99.90;;;;;;5019634;28;20052;-87
2023/02/17 04:31:29;;;;;;;8.15;4.30;;;7.80;99.90;;;;;;5012944;28;20045;-86
2023/02/17 04:34:16;;;;;;;15.50;4.95;;;7.80;99.90;;;;;;5015736;28;20050;-86
2023/02/17 04:37:04;;;;;;;8.10;4.55;;;7.80;99.90;;;;;;5023087;28;20049;-83
2023/02/17 04:39:51;;;;;;;8.10;4.40;;;7.80;99.90;;;;;;4997554;28;20139;-86
2023/02/17 04:42:42;;;;;;;8.68;5.03;;;7.80;99.90;;;;;;5012513;28;20053;-86
2023/02/17 04:45:30;;;;;;;8.60;4.57;;;7.90;99.90;;;;;;5010034;28;20054;-87
2023/02/17 04:48:18;;;;;;;10.23;4.88;;;8.00;99.90;;;;;;5012260;28;20069;-86
2023/02/17 04:51:05;;;;;;;10.10;5.28;;;8.20;99.90;;;;;;5019780;28;20048;-86
2023/02/17 04:53:55;;;;;;;10.07;4.47;;;8.30;99.90;;;;;;4999027;28;20045;-86
2023/02/17 04:56:47;;;;;;;8.85;5.25;;;8.30;99.90;;;;;;5012277;28;20143;-86
2023/02/17 04:59:35;;;;;;;8.43;4.78;;;8.30;99.90;;;;;;5013533;28;20042;-86
2023/02/17 05:02:35;;;;;;;11.13;5.55;;;8.40;99.90;;;;;;5016047;28;20062;-85
2023/02/17 05:05:25;;;;;;;;;;;8.30;99.90;;;;;;4994114;28;20187;-86
2023/02/17 05:08:12;;;;;;;12.90;4.82;;;8.30;99.90;;;;;;4998043;28;19926;-86
2023/02/17 05:11:04;;;;;;;10.82;4.68;;;8.30;99.90;;;;;;5017911;28;20541;-86
2023/02/17 05:13:53;;;;;;;10.13;5.22;;;8.30;99.90;;;;;;5011842;28;20495;-86
2023/02/17 05:16:43;;;;;;;11.63;5.43;;;8.30;99.90;;;;;;5010478;28;20201;-86
2023/02/17 05:19:31;;;;;;;9.85;5.53;;;8.30;99.90;;;;;;5009395;28;20062;-85
2023/02/17 05:22:18;;;;;;;10.52;5.15;;;8.30;99.90;;;;;;5012819;28;20054;-85
2023/02/17 05:25:06;;;;;;;9.25;5.15;;;8.30;99.90;;;;;;5022430;28;20439;-90
2023/02/17 05:27:53;;;;;;;10.65;4.90;;;8.30;99.90;;;;;;5003084;28;20057;-88
2023/02/17 05:30:42;;;;;;;12.63;4.63;;;8.30;99.90;;;;;;5022712;28;20053;-88
2023/02/17 05:33:30;;;;;;;10.10;5.10;;;8.20;99.90;;;;;;5022943;28;20057;-88
2023/02/17 05:36:18;;;;;;;11.57;4.93;;;8.20;99.90;;;;;;5016102;28;20069;-84
2023/02/17 05:39:09;;;;;;;7.90;4.70;;;8.20;99.90;;;;;;5015495;28;20046;-88
2023/02/17 05:41:58;;;;;;;10.20;5.53;;;8.20;99.90;;;;;;5018442;28;20065;-87
2023/02/17 05:44:48;;;;;;;10.60;4.85;;;8.20;99.90;;;;;;5017247;28;20045;-85
2023/02/17 05:47:35;;;;;;;12.50;4.32;;;8.30;99.90;;;;;;5004643;28;20058;-91
2023/02/17 05:50:23;;;;;;;10.32;4.93;;;8.30;99.90;;;;;;5015241;28;20065;-84
2023/02/17 05:53:10;;;;;;;10.85;5.22;;;8.30;99.90;;;;;;5012444;28;20046;-85
2023/02/17 05:56:00;;;;;;;9.07;4.70;;;8.40;99.90;;;;;;5014623;28;20042;-83
2023/02/17 05:58:49;;;;;;;14.60;5.40;;;8.50;99.90;;;;;;5014227;28;20057;-86
2023/02/17 06:01:37;;;;;;;7.10;3.85;;;8.50;99.90;;;;;;5015022;28;20119;-88
2023/02/17 06:04:24;;;;;;;8.32;4.25;;;8.60;99.90;;;;;;5016905;28;20058;-85
2023/02/17 06:07:14;;;;;;;7.70;4.07;;;8.70;99.90;;;;;;5010423;28;20050;-85
2023/02/17 06:10:04;;;;;;;11.07;4.47;;;8.70;99.90;;;;;;5012450;28;20364;-86
2023/02/17 06:12:51;;;;;;;9.00;4.43;;;8.70;99.90;;;;;;5013827;28;20069;-85
2023/02/17 06:15:39;;;;;;;7.30;4.00;;;8.70;99.90;;;;;;5015384;28;20042;-85
2023/02/17 06:18:30;;;;;;;7.72;4.03;;;8.60;99.90;;;;;;5006500;28;20109;-88
2023/02/17 06:21:18;;;;;;;6.68;3.78;;;8.60;99.90;;;;;;5014444;28;20049;-85
2023/02/17 06:24:06;;;;;;;5.43;4.07;;;8.50;99.90;;;;;;5022088;28;20127;-85
2023/02/17 06:26:53;;;;;;;9.05;4.18;;;8.50;99.90;;;;;;5018732;28;20050;-88
2023/02/17 06:29:42;;;;;;;10.13;4.70;;;8.50;99.90;;;;;;5017209;28;20053;-85
2023/02/17 06:32:31;;;;;;;11.50;4.15;;;8.50;99.90;;;;;;5016769;28;20095;-84
2023/02/17 06:35:19;;;;;;;7.03;4.25;;;8.40;99.90;;;;;;5015863;28;20050;-89
2023/02/17 06:38:06;;;;;;;9.20;4.72;;;8.50;99.90;;;;;;4998937;28;20042;-90
2023/02/17 06:40:56;;;;;;;11.10;4.75;;;8.40;99.90;;;;;;5020658;28;20124;-90
2023/02/17 06:43:49;;;;;;;7.60;3.92;;;8.40;99.90;;;;;;5014857;28;20049;-85
2023/02/17 06:46:44;;;;;;;11.43;4.03;;;8.40;99.90;;;;;;5003475;28;20045;-85
2023/02/17 06:49:32;;;;;;;9.40;4.22;;;8.40;99.90;;;;;;5005949;28;20046;-84
2023/02/17 06:52:23;;;;;;;4.97;3.70;;;8.40;99.90;;;;;;5013238;28;20052;-87
2023/02/17 07:23:29;;;;;;;9.52;3.97;;;8.70;99.90;;;;;;4855047;29;20061;-85
2023/02/17 07:26:30;;;;;;;;;;;;;;;;;;;;;
2023/02/17 07:30:11;;;;;;;12.15;5.13;;;8.80;99.90;;;;;;4803508;29;20046;-84
2023/02/17 07:38:09;;;;;;;8.18;4.25;;;8.80;99.90;;;;;;4725208;30;20064;-86
2023/02/17 07:49:58;;;;;;;12.63;4.68;;;8.80;99.90;;;;;;4774691;29;20086;-84
2023/02/17 07:57:21;;;;;;;7.53;4.00;;;8.80;99.90;;;;;;4784192;29;20031;-81
2023/02/17 08:01:04;;;;;;;;;;;;;;;;;;;;;
2023/02/17 08:04:16;;;;;;;5.85;4.28;;;8.80;1.00;;;;;;4834968;29;20133;-83
2023/02/17 08:07:41;;;;;;;9.52;4.35;;;8.90;1.00;;;;;;4821933;29;20062;-82
2023/02/17 08:15:09;;;;;;;;;;;;;;;;;;;;;
2023/02/17 08:18:21;;;;;;;10.85;5.03;;;9.10;1.00;;;;;;4856001;29;20057;-81
2023/02/17 08:21:24;;;;;;;8.50;4.60;;;9.20;1.00;;;;;;4840568;29;20057;-81
2023/02/17 08:24:43;;;;;;;7.35;4.30;;;9.30;1.00;;;;;;4844594;29;20148;-80
2023/02/17 08:27:53;;;;;;;7.72;4.50;;;9.40;1.00;;;;;;4845305;29;20166;-82
2023/02/17 08:30:42;;;;;;;8.57;4.30;;;9.50;1.00;;;;;;4842266;29;20114;-81
2023/02/17 08:33:33;;;;;;;7.13;4.78;;;9.60;1.00;;;;;;4841742;29;20393;-82
2023/02/17 08:36:45;;;;;;;7.95;5.05;;;9.70;1.00;;;;;;4862682;29;20128;-80
2023/02/17 08:39:58;;;;;;;7.30;4.90;;;9.70;1.00;;;;;;4850066;29;20064;-81
2023/02/17 08:43:07;;;;;;;8.23;4.60;;;9.60;1.00;;;;;;4942327;28;20053;-82
2023/02/17 08:46:24;;;;;;;6.95;3.90;;;9.80;1.00;;;;;;4939708;28;20048;-79
2023/02/17 08:50:19;;;;;;;10.20;4.28;;;9.80;1.00;;;;;;4940412;28;20079;-80
2023/02/17 09:09:32;;;;;;;7.60;3.70;;;10.50;99.90;;;;;;4769889;30;20130;-83
2023/02/17 09:33:58;;;;;;;;;;;;;;;;;;;;;
2023/02/17 09:36:44;;;;;;;6.50;3.53;;;9.70;1.00;;;;;;4750457;30;20506;-81
2023/02/17 09:40:52;;;;;;;;;;;;;;;;;;;;;
2023/02/17 09:44:06;;;;;;;5.82;3.45;;;9.90;1.00;;;;;;4790825;29;20350;-81
2023/02/17 09:48:20;;;;;;;7.93;3.67;;;9.90;1.00;;;;;;4822668;29;20046;-82
2023/02/17 09:52:07;;;;;;;6.60;3.42;;;10.20;1.00;;;;;;4806835;29;20132;-84
2023/02/17 10:08:56;;;;;;;;;;;;;;;;;;;;;
2023/02/17 10:12:48;;;;;;;5.82;2.70;;;10.70;1.00;;;;;;4695689;30;20057;-81
2023/02/17 12:51:37;;;;;;;3.85;2.13;;;11.40;1.00;;;;;;6089077;22;4092718;-88
2023/02/17 12:54:27;;;;;;;4.13;2.20;;;11.40;1.00;;;;;;6247832;23;20368;-86
2023/02/17 12:57:40;;;;;;;2.72;2.10;;;11.50;1.00;;;;;;6251068;22;20031;-88
2023/02/17 13:00:39;;;;;;;2.08;1.83;;;11.70;1.00;;;;;;6248398;23;20025;-86
2023/02/17 13:03:31;;;;;;;4.70;1.95;;;11.70;1.00;;;;;;6245753;23;20110;-87
2023/02/17 13:06:35;;;;;;;6.20;2.22;;;11.70;1.00;;;;;;6244138;23;20089;-85
2023/02/17 13:09:39;;;;;;;2.88;1.80;;;11.80;1.00;;;;;;6249892;22;20042;-87
2023/02/17 13:12:28;;;;;;;3.30;1.90;;;11.80;1.00;;;;;;6248548;23;20127;-87
2023/02/17 13:15:29;;;;;;;2.80;1.70;;;11.90;1.00;;;;;;6249186;22;20031;-88
2023/02/17 13:18:23;;;;;;;4.43;1.45;;;12.00;1.00;;;;;;6244854;23;20028;-86
2023/02/17 13:21:21;;;;;;;2.33;1.60;;;12.00;1.00;;;;;;6244884;23;20095;-86
2023/02/17 13:24:13;;;;;;;2.13;1.75;;;12.00;1.00;;;;;;6248745;22;20024;-86
2023/02/17 13:27:29;;;;;;;1.70;1.48;;;11.90;1.00;;;;;;6246350;23;20082;-83
2023/02/17 13:30:20;;;;;;;2.80;1.60;;;12.00;1.00;;;;;;6244497;23;20035;-85
2023/02/17 13:33:19;;;;;;;2.17;1.63;;;11.80;1.00;;;;;;6244014;23;20032;-87
2023/02/17 13:36:20;;;;;;;4.88;1.77;;;11.70;1.00;;;;;;6247088;22;20036;-84
2023/02/17 13:39:26;;;;;;;1.85;1.60;;;11.80;1.00;;;;;;6248836;23;20024;-84
2023/02/17 13:42:47;;;;;;;3.20;1.67;;;12.00;1.00;;;;;;6249781;22;20028;-86
2023/02/17 13:45:42;;;;;;;5.35;1.98;;;12.30;1.00;;;;;;6161669;22;20300;-86
2023/02/17 13:48:34;;;;;;;2.55;2.03;;;12.50;1.00;;;;;;6246383;23;20103;-85
2023/02/17 13:51:28;;;;;;;3.75;1.80;;;12.70;1.00;;;;;;6248487;22;20107;-85
2023/02/17 13:54:22;;;;;;;5.28;1.77;;;13.30;99.90;;;;;;6247056;23;20047;-85
2023/02/17 13:57:24;;;;;;;4.40;2.03;;;13.30;99.90;;;;;;6245887;23;20020;-87
2023/02/17 14:00:17;;;;;;;3.40;1.90;;;13.20;99.90;;;;;;6247237;23;20028;-86
2023/02/17 14:03:18;;;;;;;3.58;1.77;;;13.00;99.90;;;;;;6246682;23;20130;-86
2023/02/17 14:06:11;;;;;;;7.05;2.13;;;13.30;99.90;;;;;;6247433;23;20027;-88
2023/02/17 14:08:59;;;;;;;3.65;2.10;;;13.50;99.90;;;;;;6227795;23;20028;-88
2023/02/17 14:11:46;;;;;;;4.00;2.00;;;13.80;99.90;;;;;;6246077;23;20093;-85
2023/02/17 14:14:39;;;;;;;2.17;1.77;;;14.30;99.90;;;;;;6247724;23;20277;-87
2023/02/17 14:17:26;;;;;;;;;;;14.70;99.90;;;;;;6228046;23;20074;-89
2023/02/17 14:20:35;;;;;;;8.35;2.10;;;14.90;99.90;;;;;;6248297;23;19927;-87
2023/02/17 14:23:23;;;;;;;3.10;1.88;;;15.30;99.90;;;;;;6225291;23;20020;-86
2023/02/17 14:26:23;;;;;;;4.70;2.35;;;15.60;99.90;;;;;;6244535;23;20039;-84
2023/02/17 14:29:19;;;;;;;3.03;2.20;;;15.40;99.90;;;;;;6257432;23;20086;-84
2023/02/17 14:32:24;;;;;;;5.40;2.60;;;15.10;99.90;;;;;;6222940;23;20031;-86
2023/02/17 14:35:14;;;;;;;5.25;2.28;;;14.60;99.90;;;;;;6202617;23;20020;-85
2023/02/17 14:38:20;;;;;;;8.70;2.72;;;13.60;99.90;;;;;;6225019;23;20322;-84
2023/02/17 14:41:13;;;;;;;4.90;2.88;;;12.90;99.90;;;;;;6224274;23;20028;-83
2023/02/17 14:44:00;;;;;;;6.72;2.65;;;12.60;99.90;;;;;;6245416;23;20056;-85
2023/02/17 14:46:47;;;;;;;3.90;2.40;;;12.30;99.90;;;;;;6223156;23;20135;-82
2023/02/17 14:49:35;;;;;;;8.18;2.60;;;12.30;99.90;;;;;;6253268;22;20447;-84
2023/02/17 14:52:23;;;;;;;5.55;2.92;;;12.20;99.90;;;;;;6255465;22;20063;-86
2023/02/17 14:55:26;;;;;;;3.20;2.22;;;12.10;99.90;;;;;;6274717;22;20438;-84
2023/02/17 14:58:20;;;;;;;3.80;2.17;;;12.00;99.90;;;;;;6275701;22;20020;-87
2023/02/17 15:01:13;;;;;;;6.18;2.60;;;12.00;1.00;;;;;;6276787;22;20098;-85
2023/02/17 15:04:01;;;;;;;3.78;2.42;;;12.80;99.90;;;;;;6257409;22;20020;-86
2023/02/17 15:06:53;;;;;;;5.47;2.50;;;12.80;99.90;;;;;;6275281;22;20031;-84
2023/02/17 15:09:42;;;;;;;4.30;2.60;;;12.40;99.90;;;;;;6277530;22;20030;-85
2023/02/17 15:12:29;;;;;;;6.13;2.67;;;11.70;99.90;;;;;;6277760;22;20030;-88
2023/02/17 15:15:17;;;;;;;5.78;3.20;;;11.50;1.00;;;;;;6278686;22;20037;-84
2023/02/17 15:18:04;;;;;;;5.57;2.20;;;11.50;1.00;;;;;;6270481;22;20073;-82
2023/02/17 15:20:57;;;;;;;4.20;2.88;;;11.50;1.00;;;;;;6278835;22;20102;-87
2023/02/17 15:23:48;;;;;;;6.10;2.53;;;11.50;1.00;;;;;;6278465;22;20027;-85
2023/02/17 15:26:35;;;;;;;5.57;2.55;;;11.40;1.00;;;;;;6278930;22;20039;-91
2023/02/17 15:29:28;;;;;;;3.63;2.20;;;11.40;1.00;;;;;;6259943;22;20039;-89
2023/02/17 15:32:19;;;;;;;5.60;2.47;;;11.40;1.00;;;;;;6280151;22;20081;-88
2023/02/17 15:35:17;;;;;;;4.00;2.50;;;11.40;1.00;;;;;;6280605;22;20109;-90
2023/02/17 15:38:05;;;;;;;5.00;2.92;;;11.40;1.00;;;;;;6281846;22;20020;-92
2023/02/17 15:40:55;;;;;;;5.22;2.45;;;11.40;1.00;;;;;;6282137;22;20019;-89
2023/02/17 15:43:45;;;;;;;5.38;2.50;;;11.40;1.00;;;;;;6281370;22;20406;-90
2023/02/17 15:46:34;;;;;;;7.22;2.45;;;11.30;1.00;;;;;;6283819;22;20020;-92
2023/02/17 15:49:21;;;;;;;8.48;2.50;;;11.30;1.00;;;;;;6283032;22;20032;-87
2023/02/17 15:52:13;;;;;;;5.85;2.40;;;11.40;1.00;;;;;;6266649;22;20034;-88
2023/02/17 15:55:03;;;;;;;3.65;2.38;;;11.40;1.00;;;;;;6261127;22;20023;-88
2023/02/17 15:57:55;;;;;;;6.47;2.28;;;11.30;1.00;;;;;;6256337;22;20028;-84
2023/02/17 16:00:54;;;;;;;4.55;2.45;;;11.30;1.00;;;;;;6257410;22;20032;-85
2023/02/17 16:03:41;;;;;;;3.97;2.38;;;11.30;1.00;;;;;;6278460;22;20050;-85
2023/02/17 16:06:29;;;;;;;4.50;2.60;;;11.30;1.00;;;;;;6286036;22;20034;-86
2023/02/17 16:09:18;;;;;;;7.72;3.00;;;11.30;1.00;;;;;;6298013;22;20050;-85
2023/02/17 16:12:17;;;;;;;3.97;2.40;;;11.30;1.00;;;;;;6301791;22;20067;-86
2023/02/17 16:15:12;;;;;;;4.38;2.63;;;11.30;1.00;;;;;;6303013;22;20027;-87
2023/02/17 16:18:00;;;;;;;6.03;2.42;;;11.30;1.00;;;;;;6261691;22;20322;-86
2023/02/17 16:20:48;;;;;;;2.70;2.08;;;11.30;1.00;;;;;;6265360;22;20077;-86
2023/02/17 16:23:35;;;;;;;4.85;2.60;;;11.30;1.00;;;;;;6282633;22;20023;-86
2023/02/17 16:26:33;;;;;;;5.35;2.78;;;11.30;1.00;;;;;;6279785;22;20024;-85
2023/02/17 16:29:21;;;;;;;3.20;2.40;;;11.30;1.00;;;;;;6260013;22;20020;-87
2023/02/17 16:32:12;;;;;;;4.28;2.63;;;11.30;1.00;;;;;;6278103;22;20085;-86
2023/02/17 16:34:59;;;;;;;5.07;2.90;;;11.30;1.00;;;;;;6234689;22;20426;-86
2023/02/17 16:38:01;;;;;;;3.90;2.70;;;11.30;1.00;;;;;;6275335;22;20027;-86
2023/02/17 16:40:51;;;;;;;3.80;2.85;;;11.30;1.00;;;;;;6257188;22;20023;-85
2023/02/17 16:43:38;;;;;;;5.55;2.80;;;11.30;1.00;;;;;;6257275;22;20121;-87
2023/02/17 16:46:30;;;;;;;5.32;2.85;;;11.30;1.00;;;;;;6279788;22;20028;-85
2023/02/17 16:49:30;;;;;;;3.83;2.30;;;11.30;1.00;;;;;;6255716;22;20047;-84
2023/02/17 16:52:27;;;;;;;5.60;2.38;;;11.30;1.00;;;;;;6280330;22;20023;-87
2023/02/17 16:55:21;;;;;;;4.88;2.90;;;11.30;1.00;;;;;;6254917;22;20111;-83
2023/02/17 16:58:22;;;;;;;3.65;2.58;;;11.30;1.00;;;;;;6280240;22;20097;-85
2023/02/17 17:01:14;;;;;;;3.63;2.30;;;11.30;4.40;;;;;;6285785;22;20312;-85
2023/02/17 17:04:06;;;;;;;6.78;3.10;;;11.30;7.80;;;;;;6278641;22;20350;-86
2023/02/17 17:06:53;;;;;;;7.30;3.05;;;11.30;12.00;;;;;;6237111;22;20024;-86
2023/02/17 17:09:41;;;;;;;5.32;2.70;;;11.30;15.10;;;;;;6256345;22;20449;-85
2023/02/17 17:12:34;;;;;;;3.42;2.40;;;11.30;14.80;;;;;;6260513;22;20023;-86
2023/02/17 17:15:22;;;;;;;4.78;3.10;;;11.30;17.80;;;;;;6278516;22;20027;-86
2023/02/17 17:18:23;;;;;;;5.05;2.58;;;11.20;23.60;;;;;;6256519;22;20023;-84
2023/02/17 17:21:12;;;;;;;5.75;3.05;;;11.20;29.00;;;;;;6257364;22;20074;-85
2023/02/17 17:23:59;;;;;;;6.57;2.67;;;11.20;36.80;;;;;;6280149;22;20094;-83
2023/02/17 17:26:49;;;;;;;4.00;2.60;;;11.30;31.70;;;;;;6278607;22;20078;-85
2023/02/17 17:29:37;;;;;;;3.63;2.78;;;11.30;32.30;;;;;;6277201;22;20027;-86
2023/02/17 17:32:24;;;;;;;4.10;2.45;;;11.20;37.30;;;;;;6255243;22;20501;-83
2023/02/17 17:35:15;;;;;;;4.90;2.78;;;11.30;42.30;;;;;;6256869;22;20149;-82
2023/02/17 17:38:03;;;;;;;5.72;2.80;;;11.20;45.10;;;;;;6254752;22;20122;-86
2023/02/17 17:40:52;;;;;;;4.47;2.75;;;11.30;56.40;;;;;;6277244;22;20051;-85
2023/02/17 17:43:41;;;;;;;5.15;2.60;;;11.20;63.20;;;;;;6278566;22;20034;-83
2023/02/17 17:46:32;;;;;;;3.45;2.30;;;11.20;72.50;;;;;;6279166;22;20027;-83
2023/02/17 17:49:20;;;;;;;4.23;2.77;;;11.20;81.80;;;;;;6261936;22;20027;-84
2023/02/17 17:52:07;;;;;;;3.40;2.50;;;11.20;90.40;;;;;;6275805;22;20387;-84
2023/02/17 17:54:54;;;;;;;3.90;2.70;;;11.20;95.00;;;;;;6277763;22;20035;-83
2023/02/17 17:57:41;;;;;;;4.85;2.88;;;11.10;99.40;;;;;;6253317;22;20027;-84
2023/02/17 18:00:29;;;;;;;7.10;3.17;;;11.10;99.90;;;;;;6279189;22;20098;-83
2023/02/17 18:03:18;;;;;;;4.25;2.78;;;11.10;99.90;;;;;;6255167;22;20406;-82
2023/02/17 18:06:09;;;;;;;6.93;3.08;;;11.10;99.90;;;;;;6277746;22;20035;-83
2023/02/17 18:09:01;;;;;;;6.07;2.95;;;11.10;99.90;;;;;;6275823;22;20027;-81
2023/02/17 18:11:50;;;;;;;8.03;3.63;;;11.00;99.90;;;;;;6255240;22;20061;-84
2023/02/17 18:14:40;;;;;;;7.78;3.55;;;11.10;99.90;;;;;;6253407;22;20250;-82
2023/02/17 18:17:32;;;;;;;6.03;3.13;;;11.10;99.90;;;;;;6276455;22;20038;-82
2023/02/17 18:20:22;;;;;;;6.05;3.22;;;11.00;99.90;;;;;;6276162;22;20028;-83
2023/02/17 18:23:11;;;;;;;3.28;2.75;;;11.00;99.90;;;;;;6276823;22;20028;-83
2023/02/17 18:25:59;;;;;;;5.35;2.97;;;11.00;99.90;;;;;;6277693;22;20085;-84
2023/02/17 18:28:46;;;;;;;6.38;3.03;;;11.00;99.90;;;;;;6254396;22;20023;-83
2023/02/17 18:31:34;;;;;;;7.53;2.92;;;11.00;99.90;;;;;;6273811;22;20027;-84
2023/02/17 18:34:21;;;;;;;7.85;3.22;;;11.00;99.90;;;;;;6255707;22;20043;-82
2023/02/17 18:37:11;;;;;;;4.97;2.88;;;11.00;99.90;;;;;;6261008;22;20023;-82
2023/02/17 18:40:02;;;;;;;3.85;2.50;;;11.00;99.90;;;;;;6258754;22;20085;-84
2023/02/17 18:42:52;;;;;;;8.00;2.70;;;10.90;99.90;;;;;;6278290;22;20157;-85
2023/02/17 18:45:39;;;;;;;4.45;2.83;;;10.90;99.90;;;;;;6279232;22;20031;-83
2023/02/17 18:48:31;;;;;;;5.80;3.88;;;10.90;99.90;;;;;;6279551;22;20039;-83
2023/02/17 18:51:22;;;;;;;4.68;2.88;;;10.90;99.90;;;;;;6278632;22;20406;-85
2023/02/17 18:54:11;;;;;;;5.32;3.03;;;10.90;99.90;;;;;;6279806;22;20034;-84
2023/02/17 18:57:00;;;;;;;6.90;3.05;;;10.90;99.90;;;;;;6256685;22;20800;-84
2023/02/17 18:59:49;;;;;;;6.40;3.30;;;10.80;99.90;;;;;;6280393;22;20071;-82
2023/02/17 19:02:37;;;;;;;8.20;3.00;;;10.80;99.90;;;;;;6281592;22;20023;-84
2023/02/17 19:05:27;;;;;;;5.22;3.15;;;10.80;99.90;;;;;;6257342;22;20031;-84
2023/02/17 19:08:15;;;;;;;6.93;3.00;;;10.80;1.00;;;;;;6278580;22;20039;-85
2023/02/17 19:11:02;;;;;;;5.68;3.40;;;10.80;1.00;;;;;;6281365;22;20034;-82
2023/02/17 19:13:51;;;;;;;3.85;2.88;;;10.80;1.00;;;;;;6278798;22;20024;-84
2023/02/17 19:16:43;;;;;;;3.58;2.60;;;10.70;1.00;;;;;;6256846;22;20102;-84
2023/02/17 19:19:30;;;;;;;5.97;3.37;;;10.70;1.00;;;;;;6277235;22;20073;-82
2023/02/17 19:22:18;;;;;;;6.50;3.60;;;10.70;1.00;;;;;;6257927;22;20027;-82
2023/02/17 19:25:08;;;;;;;5.47;3.80;;;10.70;47.40;;;;;;6257774;22;20028;-82
2023/02/17 19:27:58;;;;;;;6.13;3.45;;;10.60;99.90;;;;;;6266018;22;20028;-82
2023/02/17 19:30:45;;;;;;;6.38;3.45;;;10.60;99.90;;;;;;6282102;22;20066;-84
2023/02/17 19:33:39;;;;;;;4.75;3.55;;;10.60;99.90;;;;;;6280044;22;20110;-85
2023/02/17 19:36:26;;;;;;;5.90;3.40;;;10.60;99.90;;;;;;6278155;22;20450;-83
2023/02/17 19:39:14;;;;;;;5.03;3.40;;;10.50;99.90;;;;;;6278525;22;20382;-83